Weather at Burjeel Medical City Heliport

Public forecast

Using degrees Celsius for public forecast. Weather courtesy of forecast.io.

Closest aviation weather report (METAR) to Burjeel Medical City Heliport

Closest report is Al Bateen Executive Airport, 6.2 nm (11.5 km) NW.

2024/07/25 19:00 (retrieved 58 minutes ago)

OMAD 251900Z 30004KT CAVOK 36/27 Q0993 NOSIG

Closest aviation forecast (TAF) to Burjeel Medical City Heliport

Closest forecast is Al Bateen Executive Airport, 6.2 nm (11.5 km) NW.

2024/07/25 18:00 (retrieved 2 hours ago)

TAF OMAD 251700Z 2518/2700 VRB02KT CAVOK BECMG 2606/2608 32011KT BECMG 2615/2617 VRB02KT